sensor_id;sensor_type;location;lat;lon;timestamp;temperature;humidity
17080;DHT22;8655;57.106;-2.088;2023-03-13T00:01:41;18.00;38.20
17080;DHT22;8655;57.106;-2.088;2023-03-13T00:04:07;18.00;38.30
17080;DHT22;8655;57.106;-2.088;2023-03-13T00:06:35;18.00;38.20
17080;DHT22;8655;57.106;-2.088;2023-03-13T00:09:02;18.00;38.20
17080;DHT22;8655;57.106;-2.088;2023-03-13T00:11:30;18.00;38.20
17080;DHT22;8655;57.106;-2.088;2023-03-13T00:13:57;18.00;38.20
17080;DHT22;8655;57.106;-2.088;2023-03-13T00:16:23;18.00;38.30
17080;DHT22;8655;57.106;-2.088;2023-03-13T00:18:51;18.00;38.30
17080;DHT22;8655;57.106;-2.088;2023-03-13T00:21:19;18.00;38.30
17080;DHT22;8655;57.106;-2.088;2023-03-13T00:23:46;18.00;38.30
17080;DHT22;8655;57.106;-2.088;2023-03-13T00:26:14;18.00;38.30
17080;DHT22;8655;57.106;-2.088;2023-03-13T00:28:41;18.00;38.30
17080;DHT22;8655;57.106;-2.088;2023-03-13T00:31:12;18.00;38.30
17080;DHT22;8655;57.106;-2.088;2023-03-13T00:33:40;18.00;38.30
17080;DHT22;8655;57.106;-2.088;2023-03-13T00:36:12;17.90;38.80
17080;DHT22;8655;57.106;-2.088;2023-03-13T00:38:38;17.90;38.20
17080;DHT22;8655;57.106;-2.088;2023-03-13T00:41:10;17.90;38.20
17080;DHT22;8655;57.106;-2.088;2023-03-13T00:43:40;17.90;38.20
17080;DHT22;8655;57.106;-2.088;2023-03-13T00:46:07;17.90;38.20
17080;DHT22;8655;57.106;-2.088;2023-03-13T00:48:33;17.90;38.30
17080;DHT22;8655;57.106;-2.088;2023-03-13T00:51:00;17.90;38.30
17080;DHT22;8655;57.106;-2.088;2023-03-13T00:53:26;17.90;38.30
17080;DHT22;8655;57.106;-2.088;2023-03-13T00:55:58;17.90;38.30
17080;DHT22;8655;57.106;-2.088;2023-03-13T00:58:25;17.90;38.30
17080;DHT22;8655;57.106;-2.088;2023-03-13T01:00:52;17.90;38.30
17080;DHT22;8655;57.106;-2.088;2023-03-13T01:03:19;17.90;38.30
17080;DHT22;8655;57.106;-2.088;2023-03-13T01:05:45;17.90;38.30
17080;DHT22;8655;57.106;-2.088;2023-03-13T01:08:19;17.90;38.30
17080;DHT22;8655;57.106;-2.088;2023-03-13T01:10:44;17.90;38.30
17080;DHT22;8655;57.106;-2.088;2023-03-13T01:13:10;17.90;38.30
17080;DHT22;8655;57.106;-2.088;2023-03-13T01:15:36;17.90;38.30
17080;DHT22;8655;57.106;-2.088;2023-03-13T01:18:01;17.80;38.20
17080;DHT22;8655;57.106;-2.088;2023-03-13T01:20:29;17.80;38.20
17080;DHT22;8655;57.106;-2.088;2023-03-13T01:22:55;17.80;38.20
17080;DHT22;8655;57.106;-2.088;2023-03-13T01:25:20;17.80;38.20
17080;DHT22;8655;57.106;-2.088;2023-03-13T01:27:46;17.80;38.20
17080;DHT22;8655;57.106;-2.088;2023-03-13T01:30:12;17.80;38.20
17080;DHT22;8655;57.106;-2.088;2023-03-13T01:32:38;17.80;38.20
17080;DHT22;8655;57.106;-2.088;2023-03-13T01:35:04;17.80;38.20
17080;DHT22;8655;57.106;-2.088;2023-03-13T01:37:29;17.80;38.20
17080;DHT22;8655;57.106;-2.088;2023-03-13T01:39:55;17.80;38.30
17080;DHT22;8655;57.106;-2.088;2023-03-13T01:42:21;17.80;38.20
17080;DHT22;8655;57.106;-2.088;2023-03-13T01:44:53;17.80;38.20
17080;DHT22;8655;57.106;-2.088;2023-03-13T01:47:19;17.80;38.20
17080;DHT22;8655;57.106;-2.088;2023-03-13T01:49:45;17.80;38.20
17080;DHT22;8655;57.106;-2.088;2023-03-13T01:52:25;17.80;38.30
17080;DHT22;8655;57.106;-2.088;2023-03-13T01:54:59;17.80;38.30
17080;DHT22;8655;57.106;-2.088;2023-03-13T01:57:26;17.70;38.20
17080;DHT22;8655;57.106;-2.088;2023-03-13T02:00:12;17.80;38.30
17080;DHT22;8655;57.106;-2.088;2023-03-13T02:02:43;17.70;38.20
17080;DHT22;8655;57.106;-2.088;2023-03-13T02:05:11;17.70;38.20
17080;DHT22;8655;57.106;-2.088;2023-03-13T02:07:39;17.70;38.20
17080;DHT22;8655;57.106;-2.088;2023-03-13T02:10:07;17.70;38.20
17080;DHT22;8655;57.106;-2.088;2023-03-13T02:12:36;17.70;38.30
17080;DHT22;8655;57.106;-2.088;2023-03-13T02:17:36;17.70;38.30
17080;DHT22;8655;57.106;-2.088;2023-03-13T02:20:03;17.70;38.30
17080;DHT22;8655;57.106;-2.088;2023-03-13T02:28:03;17.70;38.30
17080;DHT22;8655;57.106;-2.088;2023-03-13T02:30:30;17.70;38.30
17080;DHT22;8655;57.106;-2.088;2023-03-13T02:32:56;17.60;38.20
17080;DHT22;8655;57.106;-2.088;2023-03-13T02:35:22;17.60;38.20
17080;DHT22;8655;57.106;-2.088;2023-03-13T02:37:55;17.60;38.20
17080;DHT22;8655;57.106;-2.088;2023-03-13T02:40:43;17.60;38.20
17080;DHT22;8655;57.106;-2.088;2023-03-13T02:43:14;17.60;38.20
17080;DHT22;8655;57.106;-2.088;2023-03-13T02:45:41;17.60;38.20
17080;DHT22;8655;57.106;-2.088;2023-03-13T02:48:07;17.60;38.20
17080;DHT22;8655;57.106;-2.088;2023-03-13T02:50:33;17.60;38.30
17080;DHT22;8655;57.106;-2.088;2023-03-13T02:53:03;17.70;38.30
17080;DHT22;8655;57.106;-2.088;2023-03-13T02:55:40;17.60;38.30
17080;DHT22;8655;57.106;-2.088;2023-03-13T02:58:06;17.60;38.90
17080;DHT22;8655;57.106;-2.088;2023-03-13T03:00:32;17.60;38.30
17080;DHT22;8655;57.106;-2.088;2023-03-13T03:02:58;17.60;38.30
17080;DHT22;8655;57.106;-2.088;2023-03-13T03:05:24;17.60;38.30
17080;DHT22;8655;57.106;-2.088;2023-03-13T03:07:50;17.60;38.30
17080;DHT22;8655;57.106;-2.088;2023-03-13T03:10:17;17.60;38.30
17080;DHT22;8655;57.106;-2.088;2023-03-13T03:12:43;17.60;38.30
17080;DHT22;8655;57.106;-2.088;2023-03-13T03:15:09;17.60;38.30
17080;DHT22;8655;57.106;-2.088;2023-03-13T03:17:35;17.60;38.40
17080;DHT22;8655;57.106;-2.088;2023-03-13T03:20:01;17.50;38.20
17080;DHT22;8655;57.106;-2.088;2023-03-13T03:22:29;17.50;38.20
17080;DHT22;8655;57.106;-2.088;2023-03-13T03:24:54;17.50;38.30
17080;DHT22;8655;57.106;-2.088;2023-03-13T03:27:20;17.50;38.20
17080;DHT22;8655;57.106;-2.088;2023-03-13T03:29:46;17.50;38.20
17080;DHT22;8655;57.106;-2.088;2023-03-13T03:32:11;17.50;38.20
17080;DHT22;8655;57.106;-2.088;2023-03-13T03:34:37;17.50;38.20
17080;DHT22;8655;57.106;-2.088;2023-03-13T03:37:03;17.50;38.30
17080;DHT22;8655;57.106;-2.088;2023-03-13T03:39:28;17.50;38.90
17080;DHT22;8655;57.106;-2.088;2023-03-13T03:41:54;17.50;38.30
17080;DHT22;8655;57.106;-2.088;2023-03-13T03:44:20;17.50;38.30
17080;DHT22;8655;57.106;-2.088;2023-03-13T03:46:45;17.50;38.30
17080;DHT22;8655;57.106;-2.088;2023-03-13T03:49:11;17.50;38.30
17080;DHT22;8655;57.106;-2.088;2023-03-13T03:51:36;17.50;38.30
17080;DHT22;8655;57.106;-2.088;2023-03-13T03:54:02;17.50;38.30
17080;DHT22;8655;57.106;-2.088;2023-03-13T03:56:28;17.50;38.30
17080;DHT22;8655;57.106;-2.088;2023-03-13T03:58:53;17.50;38.30
17080;DHT22;8655;57.106;-2.088;2023-03-13T04:01:19;17.50;38.30
17080;DHT22;8655;57.106;-2.088;2023-03-13T04:03:45;17.50;38.30
17080;DHT22;8655;57.106;-2.088;2023-03-13T04:06:10;17.50;38.30
17080;DHT22;8655;57.106;-2.088;2023-03-13T04:08:36;17.40;38.30
17080;DHT22;8655;57.106;-2.088;2023-03-13T04:11:02;17.50;38.30
17080;DHT22;8655;57.106;-2.088;2023-03-13T04:13:27;17.40;38.30
17080;DHT22;8655;57.106;-2.088;2023-03-13T04:15:53;17.40;38.30
17080;DHT22;8655;57.106;-2.088;2023-03-13T04:18:19;17.40;38.30
17080;DHT22;8655;57.106;-2.088;2023-03-13T04:20:45;17.40;38.30
17080;DHT22;8655;57.106;-2.088;2023-03-13T04:23:10;17.40;38.30
17080;DHT22;8655;57.106;-2.088;2023-03-13T04:25:36;17.40;38.30
17080;DHT22;8655;57.106;-2.088;2023-03-13T04:28:02;17.40;38.30
17080;DHT22;8655;57.106;-2.088;2023-03-13T04:30:28;17.40;38.30
17080;DHT22;8655;57.106;-2.088;2023-03-13T04:32:54;17.40;38.30
17080;DHT22;8655;57.106;-2.088;2023-03-13T04:35:19;17.40;38.30
17080;DHT22;8655;57.106;-2.088;2023-03-13T04:37:45;17.40;38.40
17080;DHT22;8655;57.106;-2.088;2023-03-13T04:40:11;17.40;38.40
17080;DHT22;8655;57.106;-2.088;2023-03-13T04:42:39;17.40;38.40
17080;DHT22;8655;57.106;-2.088;2023-03-13T04:45:05;17.40;38.40
17080;DHT22;8655;57.106;-2.088;2023-03-13T04:47:31;17.40;38.40
17080;DHT22;8655;57.106;-2.088;2023-03-13T04:49:57;17.40;38.40
17080;DHT22;8655;57.106;-2.088;2023-03-13T04:52:22;17.40;38.40
17080;DHT22;8655;57.106;-2.088;2023-03-13T04:54:48;17.40;38.40
17080;DHT22;8655;57.106;-2.088;2023-03-13T04:57:15;17.40;38.40
17080;DHT22;8655;57.106;-2.088;2023-03-13T04:59:41;17.40;38.40
17080;DHT22;8655;57.106;-2.088;2023-03-13T05:02:11;17.40;38.40
17080;DHT22;8655;57.106;-2.088;2023-03-13T05:04:36;17.30;38.40
17080;DHT22;8655;57.106;-2.088;2023-03-13T05:07:02;17.30;38.30
17080;DHT22;8655;57.106;-2.088;2023-03-13T05:09:28;17.30;38.40
17080;DHT22;8655;57.106;-2.088;2023-03-13T05:11:53;17.30;38.40
17080;DHT22;8655;57.106;-2.088;2023-03-13T05:14:19;17.30;38.40
17080;DHT22;8655;57.106;-2.088;2023-03-13T05:16:45;17.30;38.40
17080;DHT22;8655;57.106;-2.088;2023-03-13T05:19:10;17.30;38.40
17080;DHT22;8655;57.106;-2.088;2023-03-13T05:21:36;17.30;38.40
17080;DHT22;8655;57.106;-2.088;2023-03-13T05:24:02;17.30;38.40
17080;DHT22;8655;57.106;-2.088;2023-03-13T05:26:27;17.30;38.40
17080;DHT22;8655;57.106;-2.088;2023-03-13T05:28:53;17.30;38.40
17080;DHT22;8655;57.106;-2.088;2023-03-13T05:31:18;17.30;38.40
17080;DHT22;8655;57.106;-2.088;2023-03-13T05:33:44;17.30;38.40
17080;DHT22;8655;57.106;-2.088;2023-03-13T05:36:10;17.30;38.40
17080;DHT22;8655;57.106;-2.088;2023-03-13T05:38:36;17.30;38.40
17080;DHT22;8655;57.106;-2.088;2023-03-13T05:41:01;17.30;38.50
17080;DHT22;8655;57.106;-2.088;2023-03-13T05:43:27;17.30;38.40
17080;DHT22;8655;57.106;-2.088;2023-03-13T05:45:52;17.30;38.50
17080;DHT22;8655;57.106;-2.088;2023-03-13T05:48:18;17.20;38.40
17080;DHT22;8655;57.106;-2.088;2023-03-13T05:50:44;17.20;38.40
17080;DHT22;8655;57.106;-2.088;2023-03-13T05:53:09;17.20;38.40
17080;DHT22;8655;57.106;-2.088;2023-03-13T05:55:35;17.30;38.50
17080;DHT22;8655;57.106;-2.088;2023-03-13T05:58:01;17.20;38.40
17080;DHT22;8655;57.106;-2.088;2023-03-13T06:00:26;17.20;38.40
17080;DHT22;8655;57.106;-2.088;2023-03-13T06:02:52;17.20;38.40
17080;DHT22;8655;57.106;-2.088;2023-03-13T06:05:18;17.20;38.40
17080;DHT22;8655;57.106;-2.088;2023-03-13T06:07:43;17.20;38.40
17080;DHT22;8655;57.106;-2.088;2023-03-13T06:10:10;17.20;38.50
17080;DHT22;8655;57.106;-2.088;2023-03-13T06:12:35;17.20;38.50
17080;DHT22;8655;57.106;-2.088;2023-03-13T06:15:01;17.20;38.50
17080;DHT22;8655;57.106;-2.088;2023-03-13T06:17:27;17.20;38.50
17080;DHT22;8655;57.106;-2.088;2023-03-13T06:19:53;17.20;38.50
17080;DHT22;8655;57.106;-2.088;2023-03-13T06:22:18;17.20;38.50
17080;DHT22;8655;57.106;-2.088;2023-03-13T06:24:44;17.20;38.50
17080;DHT22;8655;57.106;-2.088;2023-03-13T06:27:11;17.20;38.50
17080;DHT22;8655;57.106;-2.088;2023-03-13T06:29:36;17.20;38.50
17080;DHT22;8655;57.106;-2.088;2023-03-13T06:32:02;17.10;38.40
17080;DHT22;8655;57.106;-2.088;2023-03-13T06:34:28;17.10;38.40
17080;DHT22;8655;57.106;-2.088;2023-03-13T06:36:53;17.10;38.50
17080;DHT22;8655;57.106;-2.088;2023-03-13T06:39:19;17.20;38.50
17080;DHT22;8655;57.106;-2.088;2023-03-13T06:41:45;17.10;38.50
17080;DHT22;8655;57.106;-2.088;2023-03-13T06:44:10;17.10;38.60
17080;DHT22;8655;57.106;-2.088;2023-03-13T06:46:36;17.20;38.70
17080;DHT22;8655;57.106;-2.088;2023-03-13T06:49:02;17.20;39.30
17080;DHT22;8655;57.106;-2.088;2023-03-13T06:51:30;17.20;38.70
17080;DHT22;8655;57.106;-2.088;2023-03-13T06:53:56;17.30;38.80
17080;DHT22;8655;57.106;-2.088;2023-03-13T06:56:21;17.30;38.80
17080;DHT22;8655;57.106;-2.088;2023-03-13T06:58:48;17.40;39.00
17080;DHT22;8655;57.106;-2.088;2023-03-13T07:01:14;17.40;39.00
17080;DHT22;8655;57.106;-2.088;2023-03-13T07:03:41;17.40;39.00
17080;DHT22;8655;57.106;-2.088;2023-03-13T07:06:08;17.40;39.00
17080;DHT22;8655;57.106;-2.088;2023-03-13T07:08:35;17.50;39.10
17080;DHT22;8655;57.106;-2.088;2023-03-13T07:11:03;17.50;39.10
17080;DHT22;8655;57.106;-2.088;2023-03-13T07:13:30;17.60;39.20
17080;DHT22;8655;57.106;-2.088;2023-03-13T07:16:02;17.60;39.20
17080;DHT22;8655;57.106;-2.088;2023-03-13T07:18:28;17.70;39.30
17080;DHT22;8655;57.106;-2.088;2023-03-13T07:20:56;17.70;39.30
17080;DHT22;8655;57.106;-2.088;2023-03-13T07:23:22;17.80;39.30
17080;DHT22;8655;57.106;-2.088;2023-03-13T07:25:56;17.80;39.40
17080;DHT22;8655;57.106;-2.088;2023-03-13T07:28:23;17.90;39.50
17080;DHT22;8655;57.106;-2.088;2023-03-13T07:30:49;17.90;39.60
17080;DHT22;8655;57.106;-2.088;2023-03-13T07:33:15;18.00;39.50
17080;DHT22;8655;57.106;-2.088;2023-03-13T07:35:49;18.00;39.50
17080;DHT22;8655;57.106;-2.088;2023-03-13T07:38:15;18.10;39.70
17080;DHT22;8655;57.106;-2.088;2023-03-13T07:40:50;18.10;39.60
17080;DHT22;8655;57.106;-2.088;2023-03-13T07:43:16;18.20;39.70
17080;DHT22;8655;57.106;-2.088;2023-03-13T07:48:17;18.20;39.70
17080;DHT22;8655;57.106;-2.088;2023-03-13T07:50:43;18.30;39.80
17080;DHT22;8655;57.106;-2.088;2023-03-13T07:53:09;18.30;39.80
17080;DHT22;8655;57.106;-2.088;2023-03-13T07:55:35;18.40;39.90
17080;DHT22;8655;57.106;-2.088;2023-03-13T07:58:00;18.40;39.80
17080;DHT22;8655;57.106;-2.088;2023-03-13T08:00:26;18.50;40.00
17080;DHT22;8655;57.106;-2.088;2023-03-13T08:02:52;18.50;40.00
17080;DHT22;8655;57.106;-2.088;2023-03-13T08:05:17;18.50;40.00
17080;DHT22;8655;57.106;-2.088;2023-03-13T08:07:44;18.60;40.10
17080;DHT22;8655;57.106;-2.088;2023-03-13T08:10:10;18.60;40.00
17080;DHT22;8655;57.106;-2.088;2023-03-13T08:12:35;18.60;40.00
17080;DHT22;8655;57.106;-2.088;2023-03-13T08:15:01;18.70;40.10
17080;DHT22;8655;57.106;-2.088;2023-03-13T08:17:30;18.70;40.10
17080;DHT22;8655;57.106;-2.088;2023-03-13T08:19:55;18.80;40.20
17080;DHT22;8655;57.106;-2.088;2023-03-13T08:22:21;18.80;40.20
17080;DHT22;8655;57.106;-2.088;2023-03-13T08:24:47;18.90;40.30
17080;DHT22;8655;57.106;-2.088;2023-03-13T08:27:13;18.90;40.30
17080;DHT22;8655;57.106;-2.088;2023-03-13T08:29:38;18.90;40.30
17080;DHT22;8655;57.106;-2.088;2023-03-13T08:32:04;19.00;40.40
17080;DHT22;8655;57.106;-2.088;2023-03-13T08:34:30;19.00;40.30
17080;DHT22;8655;57.106;-2.088;2023-03-13T08:36:55;19.00;40.50
17080;DHT22;8655;57.106;-2.088;2023-03-13T08:39:22;19.00;40.30
17080;DHT22;8655;57.106;-2.088;2023-03-13T08:41:48;19.10;40.40
17080;DHT22;8655;57.106;-2.088;2023-03-13T08:44:16;19.10;40.40
17080;DHT22;8655;57.106;-2.088;2023-03-13T08:46:42;19.10;40.40
17080;DHT22;8655;57.106;-2.088;2023-03-13T08:49:09;19.20;40.50
17080;DHT22;8655;57.106;-2.088;2023-03-13T08:51:35;19.20;40.50
17080;DHT22;8655;57.106;-2.088;2023-03-13T08:54:02;19.20;40.50
17080;DHT22;8655;57.106;-2.088;2023-03-13T08:56:29;19.20;40.50
17080;DHT22;8655;57.106;-2.088;2023-03-13T08:59:00;19.20;40.50
17080;DHT22;8655;57.106;-2.088;2023-03-13T09:01:28;19.20;40.50
17080;DHT22;8655;57.106;-2.088;2023-03-13T09:03:55;19.20;40.50
17080;DHT22;8655;57.106;-2.088;2023-03-13T09:06:21;19.20;40.50
17080;DHT22;8655;57.106;-2.088;2023-03-13T09:08:46;19.20;40.50
17080;DHT22;8655;57.106;-2.088;2023-03-13T09:11:15;19.20;40.50
17080;DHT22;8655;57.106;-2.088;2023-03-13T09:13:43;19.20;40.50
17080;DHT22;8655;57.106;-2.088;2023-03-13T09:16:12;19.20;40.50
17080;DHT22;8655;57.106;-2.088;2023-03-13T09:18:39;19.20;40.50
17080;DHT22;8655;57.106;-2.088;2023-03-13T09:21:07;19.20;40.60
17080;DHT22;8655;57.106;-2.088;2023-03-13T09:23:33;19.20;40.60
17080;DHT22;8655;57.106;-2.088;2023-03-13T09:26:02;19.20;40.60
17080;DHT22;8655;57.106;-2.088;2023-03-13T09:28:28;19.10;40.50
17080;DHT22;8655;57.106;-2.088;2023-03-13T09:30:54;19.10;40.50
17080;DHT22;8655;57.106;-2.088;2023-03-13T09:33:21;19.10;40.50
17080;DHT22;8655;57.106;-2.088;2023-03-13T09:35:49;19.10;40.60
17080;DHT22;8655;57.106;-2.088;2023-03-13T09:38:17;19.10;40.50
17080;DHT22;8655;57.106;-2.088;2023-03-13T09:40:45;19.10;40.60
17080;DHT22;8655;57.106;-2.088;2023-03-13T09:46:03;19.00;40.50
17080;DHT22;8655;57.106;-2.088;2023-03-13T09:48:33;19.00;40.60
17080;DHT22;8655;57.106;-2.088;2023-03-13T09:51:09;19.00;40.50
17080;DHT22;8655;57.106;-2.088;2023-03-13T09:54:15;19.00;40.50
17080;DHT22;8655;57.106;-2.088;2023-03-13T09:59:50;18.90;40.40
17080;DHT22;8655;57.106;-2.088;2023-03-13T10:02:28;18.90;40.40
17080;DHT22;8655;57.106;-2.088;2023-03-13T10:07:39;18.90;40.50
17080;DHT22;8655;57.106;-2.088;2023-03-13T10:10:14;18.80;40.40
17080;DHT22;8655;57.106;-2.088;2023-03-13T10:12:45;18.80;40.40
17080;DHT22;8655;57.106;-2.088;2023-03-13T10:18:17;18.80;40.40
17080;DHT22;8655;57.106;-2.088;2023-03-13T10:20:48;18.70;40.30
17080;DHT22;8655;57.106;-2.088;2023-03-13T10:23:15;18.70;40.40
17080;DHT22;8655;57.106;-2.088;2023-03-13T10:25:42;18.70;40.30
17080;DHT22;8655;57.106;-2.088;2023-03-13T10:28:13;18.70;40.30
17080;DHT22;8655;57.106;-2.088;2023-03-13T10:30:47;18.70;40.40
17080;DHT22;8655;57.106;-2.088;2023-03-13T10:33:17;18.60;40.30
17080;DHT22;8655;57.106;-2.088;2023-03-13T10:35:43;18.60;40.30
17080;DHT22;8655;57.106;-2.088;2023-03-13T10:38:12;18.60;40.30
17080;DHT22;8655;57.106;-2.088;2023-03-13T10:40:39;18.60;40.30
17080;DHT22;8655;57.106;-2.088;2023-03-13T10:43:25;18.60;40.30
17080;DHT22;8655;57.106;-2.088;2023-03-13T10:45:52;18.60;40.30
17080;DHT22;8655;57.106;-2.088;2023-03-13T10:48:23;18.50;40.20
17080;DHT22;8655;57.106;-2.088;2023-03-13T10:50:54;18.50;40.20
17080;DHT22;8655;57.106;-2.088;2023-03-13T10:55:52;18.50;40.20
17080;DHT22;8655;57.106;-2.088;2023-03-13T10:58:27;18.50;40.20
17080;DHT22;8655;57.106;-2.088;2023-03-13T11:01:25;18.50;40.20
17080;DHT22;8655;57.106;-2.088;2023-03-13T11:03:57;18.40;40.10
17080;DHT22;8655;57.106;-2.088;2023-03-13T11:06:31;18.40;40.10
17080;DHT22;8655;57.106;-2.088;2023-03-13T11:09:14;18.40;40.10
17080;DHT22;8655;57.106;-2.088;2023-03-13T11:11:48;18.40;40.10
17080;DHT22;8655;57.106;-2.088;2023-03-13T11:14:22;18.40;40.10
17080;DHT22;8655;57.106;-2.088;2023-03-13T11:17:03;18.40;40.20
17080;DHT22;8655;57.106;-2.088;2023-03-13T11:27:45;18.30;40.10
17080;DHT22;8655;57.106;-2.088;2023-03-13T11:32:54;18.20;40.00
17080;DHT22;8655;57.106;-2.088;2023-03-13T11:35:34;18.20;40.00
17080;DHT22;8655;57.106;-2.088;2023-03-13T11:38:30;18.20;40.00
17080;DHT22;8655;57.106;-2.088;2023-03-13T11:41:04;18.20;40.00
17080;DHT22;8655;57.106;-2.088;2023-03-13T11:55:17;18.10;39.90
17080;DHT22;8655;57.106;-2.088;2023-03-13T12:00:47;18.10;40.00
17080;DHT22;8655;57.106;-2.088;2023-03-13T12:03:19;18.10;40.50
17080;DHT22;8655;57.106;-2.088;2023-03-13T12:05:55;18.00;39.80
17080;DHT22;8655;57.106;-2.088;2023-03-13T12:08:35;18.00;39.90
17080;DHT22;8655;57.106;-2.088;2023-03-13T12:11:15;18.00;39.90
17080;DHT22;8655;57.106;-2.088;2023-03-13T12:16:22;18.00;39.90
17080;DHT22;8655;57.106;-2.088;2023-03-13T12:18:48;18.00;39.90
17080;DHT22;8655;57.106;-2.088;2023-03-13T12:21:36;18.00;39.90
17080;DHT22;8655;57.106;-2.088;2023-03-13T12:27:09;18.00;39.90
17080;DHT22;8655;57.106;-2.088;2023-03-13T12:30:05;17.90;39.80
17080;DHT22;8655;57.106;-2.088;2023-03-13T12:32:44;17.90;39.80
17080;DHT22;8655;57.106;-2.088;2023-03-13T12:35:28;17.90;39.80
17080;DHT22;8655;57.106;-2.088;2023-03-13T12:38:05;17.90;39.80
17080;DHT22;8655;57.106;-2.088;2023-03-13T12:41:03;17.90;39.80
17080;DHT22;8655;57.106;-2.088;2023-03-13T12:43:35;17.90;39.80
17080;DHT22;8655;57.106;-2.088;2023-03-13T12:46:23;17.90;39.80
17080;DHT22;8655;57.106;-2.088;2023-03-13T12:51:33;17.80;39.70
17080;DHT22;8655;57.106;-2.088;2023-03-13T12:54:27;17.80;39.70
17080;DHT22;8655;57.106;-2.088;2023-03-13T12:59:51;17.80;39.70
17080;DHT22;8655;57.106;-2.088;2023-03-13T13:02:21;17.80;39.80
17080;DHT22;8655;57.106;-2.088;2023-03-13T13:04:49;17.80;39.70
17080;DHT22;8655;57.106;-2.088;2023-03-13T13:18:23;17.70;39.70
17080;DHT22;8655;57.106;-2.088;2023-03-13T13:23:31;17.60;39.60
17080;DHT22;8655;57.106;-2.088;2023-03-13T13:36:55;17.60;39.70
17080;DHT22;8655;57.106;-2.088;2023-03-13T13:39:38;17.60;39.60
17080;DHT22;8655;57.106;-2.088;2023-03-13T13:44:58;17.50;39.50
17080;DHT22;8655;57.106;-2.088;2023-03-13T13:47:27;17.60;39.60
17080;DHT22;8655;57.106;-2.088;2023-03-13T13:49:56;17.50;39.60
17080;DHT22;8655;57.106;-2.088;2023-03-13T13:52:41;17.50;39.60
17080;DHT22;8655;57.106;-2.088;2023-03-13T13:58:26;17.50;39.60
17080;DHT22;8655;57.106;-2.088;2023-03-13T14:00:59;17.50;39.60
17080;DHT22;8655;57.106;-2.088;2023-03-13T14:03:31;17.50;39.50
17080;DHT22;8655;57.106;-2.088;2023-03-13T14:06:17;17.50;39.60
17080;DHT22;8655;57.106;-2.088;2023-03-13T14:08:45;17.50;39.60
17080;DHT22;8655;57.106;-2.088;2023-03-13T14:11:26;17.50;39.60
17080;DHT22;8655;57.106;-2.088;2023-03-13T14:16:38;17.40;39.50
17080;DHT22;8655;57.106;-2.088;2023-03-13T14:21:48;17.40;39.50
17080;DHT22;8655;57.106;-2.088;2023-03-13T14:24:15;17.40;39.50
17080;DHT22;8655;57.106;-2.088;2023-03-13T14:26:44;17.40;39.50
17080;DHT22;8655;57.106;-2.088;2023-03-13T14:29:17;17.40;39.50
17080;DHT22;8655;57.106;-2.088;2023-03-13T14:31:53;17.40;39.50
17080;DHT22;8655;57.106;-2.088;2023-03-13T14:34:19;17.40;39.50
17080;DHT22;8655;57.106;-2.088;2023-03-13T14:36:59;17.30;39.40
17080;DHT22;8655;57.106;-2.088;2023-03-13T14:42:08;17.30;39.40
17080;DHT22;8655;57.106;-2.088;2023-03-13T14:44:34;17.30;39.40
17080;DHT22;8655;57.106;-2.088;2023-03-13T14:47:06;17.30;39.40
17080;DHT22;8655;57.106;-2.088;2023-03-13T14:49:32;17.30;39.40
17080;DHT22;8655;57.106;-2.088;2023-03-13T14:52:05;17.30;39.40
17080;DHT22;8655;57.106;-2.088;2023-03-13T14:54:35;17.30;39.40
17080;DHT22;8655;57.106;-2.088;2023-03-13T14:57:15;17.30;39.40
17080;DHT22;8655;57.106;-2.088;2023-03-13T14:59:42;17.30;39.40
17080;DHT22;8655;57.106;-2.088;2023-03-13T15:05:01;17.20;39.40
17080;DHT22;8655;57.106;-2.088;2023-03-13T15:07:50;17.20;39.40
17080;DHT22;8655;57.106;-2.088;2023-03-13T15:12:47;17.20;39.40
17080;DHT22;8655;57.106;-2.088;2023-03-13T15:15:13;17.20;39.30
17080;DHT22;8655;57.106;-2.088;2023-03-13T15:17:38;17.20;39.40
17080;DHT22;8655;57.106;-2.088;2023-03-13T15:20:05;17.20;39.40
17080;DHT22;8655;57.106;-2.088;2023-03-13T15:22:37;17.20;39.40
17080;DHT22;8655;57.106;-2.088;2023-03-13T15:25:05;17.20;39.40
17080;DHT22;8655;57.106;-2.088;2023-03-13T15:27:38;17.10;39.30
17080;DHT22;8655;57.106;-2.088;2023-03-13T15:30:04;17.10;39.30
17080;DHT22;8655;57.106;-2.088;2023-03-13T15:32:37;17.10;39.20
17080;DHT22;8655;57.106;-2.088;2023-03-13T15:35:22;17.10;39.30
17080;DHT22;8655;57.106;-2.088;2023-03-13T15:37:48;17.10;39.30
17080;DHT22;8655;57.106;-2.088;2023-03-13T15:40:16;17.10;39.20
17080;DHT22;8655;57.106;-2.088;2023-03-13T15:42:42;17.10;39.30
17080;DHT22;8655;57.106;-2.088;2023-03-13T15:45:08;17.10;39.30
17080;DHT22;8655;57.106;-2.088;2023-03-13T15:47:34;17.10;39.30
17080;DHT22;8655;57.106;-2.088;2023-03-13T15:49:59;17.00;39.20
17080;DHT22;8655;57.106;-2.088;2023-03-13T15:52:25;17.00;39.20
17080;DHT22;8655;57.106;-2.088;2023-03-13T15:54:51;17.00;39.20
17080;DHT22;8655;57.106;-2.088;2023-03-13T15:57:20;17.00;39.20
17080;DHT22;8655;57.106;-2.088;2023-03-13T15:59:48;17.00;39.20
17080;DHT22;8655;57.106;-2.088;2023-03-13T16:02:16;17.00;39.20
17080;DHT22;8655;57.106;-2.088;2023-03-13T16:04:43;17.00;39.20
17080;DHT22;8655;57.106;-2.088;2023-03-13T16:07:14;17.00;39.20
17080;DHT22;8655;57.106;-2.088;2023-03-13T16:09:41;17.00;39.20
17080;DHT22;8655;57.106;-2.088;2023-03-13T16:12:07;17.00;39.20
17080;DHT22;8655;57.106;-2.088;2023-03-13T16:14:33;16.90;39.10
17080;DHT22;8655;57.106;-2.088;2023-03-13T16:17:00;16.90;39.70
17080;DHT22;8655;57.106;-2.088;2023-03-13T16:19:27;16.90;39.10
17080;DHT22;8655;57.106;-2.088;2023-03-13T16:21:52;16.90;39.10
17080;DHT22;8655;57.106;-2.088;2023-03-13T16:24:18;16.90;39.10
17080;DHT22;8655;57.106;-2.088;2023-03-13T16:26:45;16.90;39.10
17080;DHT22;8655;57.106;-2.088;2023-03-13T16:29:14;16.90;39.10
17080;DHT22;8655;57.106;-2.088;2023-03-13T16:31:41;16.90;39.10
17080;DHT22;8655;57.106;-2.088;2023-03-13T16:34:07;16.80;39.00
17080;DHT22;8655;57.106;-2.088;2023-03-13T16:36:34;16.80;39.00
17080;DHT22;8655;57.106;-2.088;2023-03-13T16:39:04;16.80;39.00
17080;DHT22;8655;57.106;-2.088;2023-03-13T16:41:33;16.80;39.00
17080;DHT22;8655;57.106;-2.088;2023-03-13T16:43:59;16.80;39.00
17080;DHT22;8655;57.106;-2.088;2023-03-13T16:46:36;16.80;39.00
17080;DHT22;8655;57.106;-2.088;2023-03-13T16:49:02;16.80;39.00
17080;DHT22;8655;57.106;-2.088;2023-03-13T16:51:29;16.70;38.90
17080;DHT22;8655;57.106;-2.088;2023-03-13T16:53:57;16.70;39.60
17080;DHT22;8655;57.106;-2.088;2023-03-13T16:56:39;16.70;39.00
17080;DHT22;8655;57.106;-2.088;2023-03-13T16:59:09;16.70;39.00
17080;DHT22;8655;57.106;-2.088;2023-03-13T17:01:36;16.70;38.90
17080;DHT22;8655;57.106;-2.088;2023-03-13T17:04:01;16.70;38.90
17080;DHT22;8655;57.106;-2.088;2023-03-13T17:06:30;16.70;38.90
17080;DHT22;8655;57.106;-2.088;2023-03-13T17:08:56;16.70;38.90
17080;DHT22;8655;57.106;-2.088;2023-03-13T17:11:22;16.70;38.90
17080;DHT22;8655;57.106;-2.088;2023-03-13T17:13:50;16.60;38.90
17080;DHT22;8655;57.106;-2.088;2023-03-13T17:16:19;16.60;38.90
17080;DHT22;8655;57.106;-2.088;2023-03-13T17:18:47;16.60;38.90
17080;DHT22;8655;57.106;-2.088;2023-03-13T17:21:16;16.60;38.90
17080;DHT22;8655;57.106;-2.088;2023-03-13T17:23:42;16.60;38.90
17080;DHT22;8655;57.106;-2.088;2023-03-13T17:26:20;16.60;38.90